»·PEaware :: PRD69 KMRY-KPSP

PRD69 :: KMRY-KPSP

FLIGHT INFORMATION

Flight Status: Arrived
Operator: Unknown
More flights by this operator :: More flights under this callsign
Pilot: Tanner C. (11250)
Aircraft: GULFSTREAM G-1159C GULFSTREAM 4
(GLF4)
More flights by this aircraft type
Origin: KMRY Monterey Peninsula
United States
Destination: KPSP Palm Springs Intl
United States
More flights between these airports :: More routes between these airports
Route: +MRY4 SERFR PMD V137 PSP
File this flight plan on PilotEdge
Remarks:
Altitude:
(Current/Filed)
33,000ft
Speed:
(Current/Filed)
500kts
Departed: 11-Jan-18 10:26 PM
Arrived: 11-Jan-18 11:17 PM
Distance/Time
Traveled:
314nm/0:51
Distance/Time
To Go:
Arrived

Flight Plot

Page will automatically refresh every two minutes.

Flight plan parsing failed; only flown route is shown


Map Options




Map Legend


Flown Route
Filed Route
Departure Airport
Arrival Airport
Navaid (VOR, NDB)
Fix

Horizontal Profiles

Position Reports

Time Latitude Longitude Heading Altitude Ground
Speed
11-Jan-18 22:20 36.588731 -121.856955 360 170ft 0kts
11-Jan-18 22:21 36.588731 -121.856955 360 170ft 0kts
11-Jan-18 22:22 36.588731 -121.856955 360 170ft 0kts
11-Jan-18 22:23 36.588731 -121.856955 360 170ft 0kts
11-Jan-18 22:24 36.588731 -121.856955 0 170ft 0kts
11-Jan-18 22:25 36.588731 -121.856955 360 170ft 0kts
11-Jan-18 22:26 36.588731 -121.856955 360 170ft 0kts
11-Jan-18 22:27 36.588731 -121.856955 360 170ft 0kts
11-Jan-18 22:28 36.589510 -121.855763 86 170ft 12kts
11-Jan-18 22:29 36.587756 -121.849428 96 170ft 20kts
11-Jan-18 22:30 36.585474 -121.842770 113 170ft 27kts
11-Jan-18 22:31 36.582974 -121.835367 110 170ft 23kts
11-Jan-18 22:32 36.590677 -121.854138 295 878ft 208kts
11-Jan-18 22:33 36.639862 -121.911982 341 4898ft 279kts
11-Jan-18 22:34 36.712237 -121.925031 29 7363ft 265kts
11-Jan-18 22:35 36.709724 -121.828783 140 11481ft 372kts
11-Jan-18 22:36 36.619530 -121.759343 153 16761ft 409kts
11-Jan-18 22:37 36.518406 -121.686343 155 22228ft 441kts
11-Jan-18 22:38 36.409322 -121.607991 156 26724ft 473kts
11-Jan-18 22:39 36.292970 -121.524700 156 30633ft 499kts
11-Jan-18 22:40 36.186178 -121.448203 159 35495ft 373kts
11-Jan-18 22:41 36.098118 -121.385967 158 37341ft 395kts
11-Jan-18 22:42 36.036680 -121.286755 123 37337ft 470kts
11-Jan-18 22:43 35.975460 -121.141241 121 37336ft 490kts
11-Jan-18 22:44 35.912252 -120.990002 121 37346ft 506kts
11-Jan-18 22:45 35.854128 -120.851531 121 37287ft 516kts
11-Jan-18 22:46 35.785702 -120.689253 121 37349ft 551kts
11-Jan-18 22:47 35.720971 -120.536473 120 37352ft 549kts
11-Jan-18 22:48 35.650548 -120.371043 120 37354ft 550kts
11-Jan-18 22:49 35.587884 -120.224530 121 37341ft 554kts
11-Jan-18 22:50 35.517912 -120.061701 121 37344ft 554kts
11-Jan-18 22:51 35.450657 -119.905939 121 37346ft 554kts
11-Jan-18 22:52 35.382950 -119.749847 121 37349ft 551kts
11-Jan-18 22:53 35.312221 -119.587559 121 37351ft 551kts
11-Jan-18 22:54 35.241746 -119.426521 121 37353ft 550kts
11-Jan-18 22:55 35.178520 -119.282900 122 37341ft 550kts
11-Jan-18 22:56 35.108862 -119.125258 121 37343ft 550kts
11-Jan-18 22:57 35.036910 -118.963183 121 37346ft 550kts
11-Jan-18 22:58 34.965691 -118.803514 121 37348ft 550kts
11-Jan-18 22:59 34.896155 -118.648369 121 35562ft 545kts
11-Jan-18 23:00 34.826624 -118.493911 121 32767ft 539kts
11-Jan-18 23:01 34.758624 -118.343513 121 29425ft 545kts
11-Jan-18 23:02 34.692067 -118.196893 121 26651ft 550kts
11-Jan-18 23:03 34.622639 -118.044522 121 24276ft 505kts
11-Jan-18 23:04 34.569601 -117.928321 121 24287ft 496kts
11-Jan-18 23:05 34.496298 -117.768253 121 24118ft 498kts
11-Jan-18 23:06 34.441228 -117.648539 121 22449ft 469kts
11-Jan-18 23:07 34.377586 -117.510697 120 20512ft 465kts
11-Jan-18 23:08 34.319255 -117.384822 120 18642ft 447kts
11-Jan-18 23:09 34.252042 -117.240343 120 16387ft 431kts
11-Jan-18 23:10 34.205346 -117.140277 119 14780ft 423kts
11-Jan-18 23:11 34.150587 -117.023132 118 12800ft 383kts
11-Jan-18 23:12 34.104991 -116.927247 122 11012ft 372kts
11-Jan-18 23:13 34.053999 -116.827102 119 8924ft 336kts
11-Jan-18 23:14 34.009059 -116.731559 124 6421ft 324kts
11-Jan-18 23:15 33.962830 -116.652820 121 5173ft 287kts
11-Jan-18 23:16 33.924335 -116.579470 121 5051ft 238kts
11-Jan-18 23:17 33.891707 -116.517729 121 4931ft 237kts
11-Jan-18 23:18 33.858271 -116.454435 121 4220ft 225kts
11-Jan-18 23:19 33.821379 -116.408033 164 3067ft 167kts
11-Jan-18 23:20 33.781879 -116.426158 245 3327ft 172kts
11-Jan-18 23:21 33.787995 -116.471215 316 2210ft 137kts
11-Jan-18 23:22 33.818502 -116.497766 323 555ft 136kts
11-Jan-18 23:23 33.832984 -116.511857 195 485ft 1kts
11-Jan-18 23:24 33.828945 -116.509077 140 485ft 21kts
11-Jan-18 23:25 33.825967 -116.506958 205 485ft 5kts
11-Jan-18 23:26 33.825729 -116.509216 310 485ft 4kts
11-Jan-18 23:27 33.825742 -116.509276 261 485ft 0kts
11-Jan-18 23:28 33.825742 -116.509276 261 485ft 0kts
11-Jan-18 23:29 33.825742 -116.509276 261 485ft 0kts
11-Jan-18 23:30 33.825742 -116.509276 261 485ft 0kts
11-Jan-18 23:31 33.825406 -116.508466 92 485ft 16kts
11-Jan-18 23:32 33.823125 -116.503891 143 485ft 15kts
11-Jan-18 23:33 33.818597 -116.498280 57 485ft 14kts
11-Jan-18 23:34 33.839927 -116.519330 318 2079ft 214kts
11-Jan-18 23:35 33.885214 -116.517205 64 4999ft 208kts
11-Jan-18 23:36 33.863262 -116.450049 121 4969ft 227kts
11-Jan-18 23:37 33.822242 -116.394201 141 5009ft 229kts

Navigation Log

Ident Type
Flight plan parsing failed, navigation log unavailable